createdAt,value
2019-04-20T00:01:11.517Z,4.50
2019-04-20T00:03:43.173Z,4.47
2019-04-20T00:06:12.905Z,4.44
2019-04-20T00:08:45.641Z,4.41
2019-04-20T00:11:23.451Z,4.42
2019-04-20T00:13:57.729Z,4.43
2019-04-20T00:16:21.081Z,4.42
2019-04-20T00:18:55.624Z,4.38
2019-04-20T00:21:43.024Z,4.35
2019-04-20T00:24:21.584Z,4.30
2019-04-20T00:29:35.565Z,4.21
2019-04-20T00:32:02.825Z,4.17
2019-04-20T00:34:30.091Z,4.11
2019-04-20T00:36:56.127Z,4.07
2019-04-20T00:39:27.739Z,4.05
2019-04-20T00:42:03.492Z,4.08
2019-04-20T00:44:36.011Z,4.07
2019-04-20T00:47:13.337Z,4.03
2019-04-20T00:49:48.424Z,3.99
2019-04-20T00:54:39.448Z,3.92
2019-04-20T00:57:20.434Z,3.88
2019-04-20T01:00:02.618Z,3.80
2019-04-20T01:02:25.823Z,3.73
2019-04-20T01:05:04.287Z,3.69
2019-04-20T01:07:37.457Z,3.63
2019-04-20T01:10:09.160Z,3.58
2019-04-20T01:12:41.002Z,3.53
2019-04-20T01:15:23.106Z,3.45
2019-04-20T01:17:44.600Z,3.41
2019-04-20T01:20:16.077Z,3.36
2019-04-20T01:22:54.623Z,3.32
2019-04-20T01:25:28.436Z,3.29
2019-04-20T01:28:08.675Z,3.26
2019-04-20T01:30:35.287Z,3.23
2019-04-20T01:33:13.701Z,3.19
2019-04-20T01:35:44.096Z,3.14
2019-04-20T01:38:22.402Z,3.09
2019-04-20T01:40:36.102Z,3.06
2019-04-20T01:43:07.967Z,3.06
2019-04-20T01:45:40.890Z,3.02
2019-04-20T01:48:14.181Z,2.98
2019-04-20T01:50:50.022Z,2.98
2019-04-20T01:53:29.243Z,2.94
2019-04-20T01:56:01.398Z,2.91
2019-04-20T01:58:47.462Z,2.86
2019-04-20T02:01:23.927Z,2.79
2019-04-20T02:04:17.113Z,2.75
2019-04-20T02:06:48.536Z,2.71
2019-04-20T02:09:19.163Z,2.67
2019-04-20T02:11:49.767Z,2.67
2019-04-20T02:14:24.300Z,2.65
2019-04-20T02:17:02.998Z,2.61
2019-04-20T02:19:39.284Z,2.56
2019-04-20T02:22:12.665Z,2.51
2019-04-20T02:24:27.999Z,2.47
2019-04-20T02:26:58.271Z,2.44
2019-04-20T02:29:54.262Z,2.41
2019-04-20T02:32:47.925Z,2.34
2019-04-20T02:35:36.565Z,2.34
2019-04-20T02:40:35.438Z,2.28
2019-04-20T02:42:59.869Z,2.26
2019-04-20T02:45:55.013Z,2.21
2019-04-20T02:48:22.184Z,2.16
2019-04-20T02:50:36.132Z,2.16
2019-04-20T02:53:15.636Z,2.13
2019-04-20T02:55:41.944Z,2.10
2019-04-20T02:58:07.743Z,2.07
2019-04-20T03:00:35.569Z,2.04
2019-04-20T03:02:53.662Z,2.00
2019-04-20T03:05:28.335Z,1.96
2019-04-20T03:08:01.161Z,1.91
2019-04-20T03:10:46.352Z,1.91
2019-04-20T03:13:14.397Z,1.90
2019-04-20T03:15:41.792Z,1.89
2019-04-20T03:18:13.598Z,1.87
2019-04-20T03:20:55.058Z,1.84
2019-04-20T03:23:31.230Z,1.82
2019-04-20T03:26:09.606Z,1.83
2019-04-20T03:28:54.073Z,1.86
2019-04-20T03:31:58.516Z,1.88
2019-04-20T03:34:41.687Z,1.91
2019-04-20T03:36:57.173Z,1.90
2019-04-20T03:39:13.596Z,1.90
2019-04-20T03:41:36.653Z,1.93
2019-04-20T03:44:06.682Z,1.95
2019-04-20T03:46:43.030Z,1.99
2019-04-20T03:49:36.937Z,2.02
2019-04-20T03:51:57.376Z,2.07
2019-04-20T03:54:25.207Z,2.15
2019-04-20T03:57:15.701Z,2.20
2019-04-20T03:59:50.929Z,2.26
2019-04-20T04:02:37.514Z,2.31
2019-04-20T04:05:08.757Z,2.37
2019-04-20T04:07:30.364Z,2.51
2019-04-20T04:10:10.987Z,2.64
2019-04-20T04:13:01.234Z,2.75
2019-04-20T04:15:36.186Z,2.86
2019-04-20T04:18:13.603Z,2.95
2019-04-20T04:20:47.618Z,3.06
2019-04-20T04:23:28.684Z,3.16
2019-04-20T04:26:00.712Z,3.27
2019-04-20T04:28:35.236Z,3.41
2019-04-20T04:31:07.896Z,3.57
2019-04-20T04:36:10.164Z,3.89
2019-04-20T04:41:20.227Z,4.32
2019-04-20T04:43:44.359Z,4.59
2019-04-20T04:46:01.687Z,4.94
2019-04-20T04:48:37.280Z,6.06
2019-04-20T04:51:12.832Z,6.55
2019-04-20T04:53:47.913Z,8.05
2019-04-20T04:56:14.405Z,9.80
2019-04-20T04:58:42.490Z,11.80
2019-04-20T05:01:18.508Z,13.46
2019-04-20T05:04:10.520Z,15.13
2019-04-20T05:06:35.902Z,16.04
2019-04-20T05:08:57.940Z,15.96
2019-04-20T05:11:25.745Z,15.88
2019-04-20T05:14:02.237Z,16.41
2019-04-20T05:16:46.363Z,16.40
2019-04-20T05:19:26.322Z,16.07
2019-04-20T05:22:05.424Z,16.91
2019-04-20T05:24:33.791Z,17.11
2019-04-20T05:27:13.700Z,17.67
2019-04-20T05:29:27.384Z,17.14
2019-04-20T05:32:03.479Z,16.02
2019-04-20T05:34:52.817Z,15.61
2019-04-20T05:37:28.408Z,15.74
2019-04-20T05:39:50.364Z,16.38
2019-04-20T05:42:31.308Z,16.11
2019-04-20T05:44:57.247Z,15.72
2019-04-20T05:47:29.173Z,15.49
2019-04-20T05:49:57.514Z,15.31
2019-04-20T05:55:09.965Z,16.03
2019-04-20T05:57:41.947Z,15.76
2019-04-20T06:00:14.612Z,16.92
2019-04-20T06:02:44.143Z,17.71
2019-04-20T06:05:16.026Z,17.65
2019-04-20T06:07:50.329Z,17.96
2019-04-20T06:10:20.408Z,18.62
2019-04-20T06:12:51.719Z,19.35
2019-04-20T06:15:40.713Z,20.28
2019-04-20T06:18:20.190Z,20.53
2019-04-20T06:21:02.263Z,20.83
2019-04-20T06:23:50.647Z,21.43
2019-04-20T06:26:40.050Z,21.87
2019-04-20T06:28:46.494Z,22.42
2019-04-20T06:31:42.871Z,22.69
2019-04-20T06:36:57.188Z,24.83
2019-04-20T06:39:44.847Z,25.47
2019-04-20T06:42:09.863Z,25.89
2019-04-20T06:44:57.634Z,26.61
2019-04-20T06:49:38.043Z,27.87
2019-04-20T06:55:03.349Z,30.19
2019-04-20T07:02:44.187Z,33.97
2019-04-20T07:05:20.773Z,34.39
2019-04-20T07:12:48.094Z,36.67
2019-04-20T07:15:22.714Z,36.92
2019-04-20T07:18:06.166Z,36.38
2019-04-20T07:20:39.127Z,36.16
2019-04-20T07:23:18.184Z,36.48
2019-04-20T07:25:43.319Z,37.16
2019-04-20T07:28:15.646Z,37.68
2019-04-20T07:30:46.314Z,37.12
2019-04-20T07:33:17.281Z,37.36
2019-04-20T07:35:50.714Z,37.26
2019-04-20T07:38:31.318Z,36.81
2019-04-20T07:40:55.795Z,37.04
2019-04-20T07:43:25.565Z,36.92
2019-04-20T07:46:00.085Z,36.69
2019-04-20T07:48:31.066Z,36.85
2019-04-20T07:51:00.402Z,36.93
2019-04-20T07:53:36.172Z,37.82
2019-04-20T07:56:11.523Z,38.54
2019-04-20T07:58:36.952Z,39.32
2019-04-20T08:01:30.768Z,39.69
2019-04-20T08:04:06.004Z,40.61
2019-04-20T08:06:37.889Z,40.66
2019-04-20T08:09:17.235Z,38.78
2019-04-20T08:12:02.996Z,36.73
2019-04-20T08:14:35.084Z,34.82
2019-04-20T08:17:14.312Z,33.39
2019-04-20T08:19:33.132Z,32.06
2019-04-20T08:22:12.316Z,31.12
2019-04-20T08:24:32.865Z,31.55
2019-04-20T08:26:55.875Z,32.28
2019-04-20T08:29:47.503Z,33.13
2019-04-20T08:32:28.112Z,34.43
2019-04-20T08:35:05.064Z,35.23
2019-04-20T08:37:32.952Z,35.19
2019-04-20T08:40:10.180Z,34.50
2019-04-20T08:42:49.734Z,34.23
2019-04-20T08:45:16.374Z,34.86
2019-04-20T08:47:57.021Z,35.06
2019-04-20T08:50:22.570Z,34.72
2019-04-20T08:55:23.399Z,34.61
2019-04-20T08:57:42.401Z,35.00
2019-04-20T09:00:28.405Z,35.17
2019-04-20T09:02:58.159Z,35.39
2019-04-20T09:05:34.720Z,35.17
2019-04-20T09:08:06.921Z,34.97
2019-04-20T09:10:50.836Z,35.29
2019-04-20T09:13:16.057Z,34.91
2019-04-20T09:15:36.645Z,34.69
2019-04-20T09:18:22.618Z,35.29
2019-04-20T09:20:57.574Z,35.81
2019-04-20T09:23:39.264Z,35.59
2019-04-20T09:26:17.531Z,35.13
2019-04-20T09:28:48.232Z,34.19
2019-04-20T09:31:26.461Z,33.36
2019-04-20T09:34:08.807Z,32.53
2019-04-20T09:36:40.323Z,32.29
2019-04-20T09:39:11.478Z,32.28
2019-04-20T09:42:00.044Z,32.32
2019-04-20T09:44:20.037Z,32.74
2019-04-20T09:46:54.693Z,32.97
2019-04-20T09:49:37.690Z,32.79
2019-04-20T09:52:07.848Z,32.25
2019-04-20T09:54:45.978Z,32.38
2019-04-20T09:57:20.511Z,31.70
2019-04-20T09:59:49.966Z,31.47
2019-04-20T10:02:12.886Z,31.46
2019-04-20T10:04:39.679Z,31.50
2019-04-20T10:07:16.241Z,31.18
2019-04-20T10:09:45.634Z,31.23
2019-04-20T10:12:17.620Z,30.92
2019-04-20T10:14:49.075Z,30.20
2019-04-20T10:17:20.526Z,29.69
2019-04-20T10:19:51.483Z,28.45
2019-04-20T10:22:22.548Z,26.67
2019-04-20T10:24:55.451Z,25.30
2019-04-20T10:27:28.399Z,24.42
2019-04-20T10:30:02.259Z,23.99
2019-04-20T10:32:38.892Z,23.60
2019-04-20T10:35:04.574Z,23.44
2019-04-20T10:37:37.746Z,23.40
2019-04-20T10:40:08.826Z,23.19
2019-04-20T10:42:39.152Z,22.74
2019-04-20T10:45:10.873Z,22.13
2019-04-20T10:47:43.143Z,21.83
2019-04-20T10:50:14.339Z,21.67
2019-04-20T10:52:45.768Z,21.51
2019-04-20T10:55:16.840Z,21.31
2019-04-20T10:57:47.121Z,21.13
2019-04-20T11:00:19.713Z,21.00
2019-04-20T11:02:52.390Z,20.90
2019-04-20T11:05:22.852Z,20.87
2019-04-20T11:07:54.699Z,20.66
2019-04-20T11:10:28.933Z,20.56
2019-04-20T11:12:57.323Z,20.43
2019-04-20T11:15:28.241Z,20.28
2019-04-20T11:17:59.611Z,20.32
2019-04-20T11:20:31.163Z,20.28
2019-04-20T11:23:02.367Z,20.26
2019-04-20T11:25:34.416Z,20.39
2019-04-20T11:28:06.062Z,20.51
2019-04-20T11:30:38.342Z,20.41
2019-04-20T11:33:11.693Z,20.27
2019-04-20T11:35:43.673Z,20.23
2019-04-20T11:38:17.102Z,20.32
2019-04-20T11:40:50.806Z,20.30
2019-04-20T11:43:19.782Z,20.29
2019-04-20T11:45:51.117Z,20.11
2019-04-20T11:48:21.558Z,20.10
2019-04-20T11:50:52.438Z,20.15
2019-04-20T11:53:26.638Z,20.26
2019-04-20T11:55:56.359Z,20.32
2019-04-20T11:58:27.738Z,20.52
2019-04-20T12:01:08.548Z,20.72
2019-04-20T12:03:46.843Z,21.00
2019-04-20T12:06:08.662Z,21.21
2019-04-20T12:08:41.020Z,21.27
2019-04-20T12:11:24.929Z,21.30
2019-04-20T12:13:43.227Z,21.39
2019-04-20T12:16:13.899Z,21.58
2019-04-20T12:18:44.411Z,21.80
2019-04-20T12:21:16.754Z,22.03
2019-04-20T12:23:48.571Z,21.97
2019-04-20T12:26:20.512Z,21.89
2019-04-20T12:28:51.628Z,21.77
2019-04-20T12:31:24.663Z,21.76
2019-04-20T12:33:55.036Z,21.59
2019-04-20T12:36:26.049Z,21.50
2019-04-20T12:38:57.214Z,21.43
2019-04-20T12:41:37.601Z,21.29
2019-04-20T12:43:59.942Z,21.13
2019-04-20T12:46:31.825Z,20.94
2019-04-20T12:49:02.936Z,20.76
2019-04-20T12:51:44.671Z,20.63
2019-04-20T12:54:06.753Z,20.53
2019-04-20T12:56:38.348Z,20.29
2019-04-20T12:59:09.625Z,20.15
2019-04-20T13:01:41.451Z,20.16
2019-04-20T13:04:14.391Z,20.23
2019-04-20T13:06:46.969Z,20.32
2019-04-20T13:09:20.840Z,20.30
2019-04-20T13:12:01.109Z,20.29
2019-04-20T13:14:34.704Z,20.34
2019-04-20T13:17:10.367Z,20.55
2019-04-20T13:19:41.540Z,20.64
2019-04-20T13:22:12.955Z,20.62
2019-04-20T13:24:45.118Z,20.51
2019-04-20T13:27:16.764Z,20.55
2019-04-20T13:29:50.502Z,20.61
2019-04-20T13:32:20.201Z,20.60
2019-04-20T13:34:52.019Z,20.43
2019-04-20T13:37:24.531Z,20.17
2019-04-20T13:39:54.818Z,19.92
2019-04-20T13:42:28.159Z,19.74
2019-04-20T13:44:57.147Z,19.53
2019-04-20T13:47:28.335Z,19.51
2019-04-20T13:49:59.177Z,19.48
2019-04-20T13:52:30.975Z,19.50
2019-04-20T13:55:02.643Z,19.56
2019-04-20T13:57:37.933Z,19.53
2019-04-20T14:00:17.916Z,19.45
2019-04-20T14:02:51.008Z,19.44
2019-04-20T14:05:35.046Z,19.27
2019-04-20T14:08:09.631Z,19.21
2019-04-20T14:10:41.686Z,19.16
2019-04-20T14:13:16.991Z,19.14
2019-04-20T14:15:45.140Z,19.19
2019-04-20T14:18:15.456Z,19.25
2019-04-20T14:20:45.710Z,19.20
2019-04-20T14:23:17.065Z,19.30
2019-04-20T14:25:49.181Z,19.28
2019-04-20T14:28:20.937Z,19.27
2019-04-20T14:30:52.038Z,19.14
2019-04-20T14:33:24.105Z,19.08
2019-04-20T14:35:55.143Z,19.14
2019-04-20T14:38:28.513Z,19.20
2019-04-20T14:41:00.068Z,19.24
2019-04-20T14:43:32.957Z,19.26
2019-04-20T14:46:03.133Z,19.32
2019-04-20T14:48:34.478Z,19.36
2019-04-20T14:51:05.723Z,19.45
2019-04-20T14:53:37.687Z,19.49
2019-04-20T14:56:09.540Z,19.53
2019-04-20T14:58:51.438Z,19.50
2019-04-20T15:01:36.605Z,19.54
2019-04-20T15:04:13.473Z,19.50
2019-04-20T15:06:40.068Z,19.35
2019-04-20T15:09:12.740Z,19.25
2019-04-20T15:11:45.163Z,19.16
2019-04-20T15:14:16.416Z,19.05
2019-04-20T15:16:48.652Z,18.89
2019-04-20T15:19:21.167Z,18.82
2019-04-20T15:22:01.692Z,18.72
2019-04-20T15:24:33.274Z,18.72
2019-04-20T15:27:04.798Z,18.65
2019-04-20T15:29:38.199Z,18.61
2019-04-20T15:32:10.151Z,18.57
2019-04-20T15:34:42.797Z,18.65
2019-04-20T15:37:14.114Z,18.62
2019-04-20T15:39:45.303Z,18.53
2019-04-20T15:42:17.118Z,18.39
2019-04-20T15:44:49.070Z,18.35
2019-04-20T15:47:22.366Z,18.35
2019-04-20T15:49:53.702Z,18.25
2019-04-20T15:52:28.813Z,18.21
2019-04-20T15:55:01.763Z,18.41
2019-04-20T15:57:31.684Z,18.39
2019-04-20T16:00:04.562Z,18.26
2019-04-20T16:02:39.029Z,18.06
2019-04-20T16:05:18.506Z,18.14
2019-04-20T16:07:56.178Z,18.06
2019-04-20T16:10:21.330Z,17.92
2019-04-20T16:13:04.824Z,17.87
2019-04-20T16:15:25.351Z,17.76
2019-04-20T16:17:56.827Z,17.63
2019-04-20T16:20:28.852Z,17.52
2019-04-20T16:23:00.634Z,17.46
2019-04-20T16:25:49.880Z,17.44
2019-04-20T16:28:23.682Z,17.32
2019-04-20T16:30:55.908Z,17.20
2019-04-20T16:33:28.550Z,17.09
2019-04-20T16:36:00.624Z,17.01
2019-04-20T16:38:31.005Z,16.94
2019-04-20T16:41:06.547Z,16.88
2019-04-20T16:43:41.447Z,16.99
2019-04-20T16:46:13.101Z,16.89
2019-04-20T16:48:44.733Z,16.87
2019-04-20T16:51:16.705Z,16.70
2019-04-20T16:53:49.847Z,16.64
2019-04-20T16:56:22.322Z,16.58
2019-04-20T16:59:01.456Z,16.45
2019-04-20T17:01:31.677Z,16.32
2019-04-20T17:04:07.797Z,16.26
2019-04-20T17:06:38.165Z,16.20
2019-04-20T17:09:12.060Z,16.17
2019-04-20T17:11:43.741Z,16.12
2019-04-20T17:14:16.994Z,16.02
2019-04-20T17:16:47.767Z,15.92
2019-04-20T17:19:21.840Z,15.80
2019-04-20T17:21:57.227Z,15.70
2019-04-20T17:24:31.390Z,15.56
2019-04-20T17:27:05.332Z,15.46
2019-04-20T17:29:50.724Z,15.39
2019-04-20T17:32:27.473Z,15.34
2019-04-20T17:35:13.339Z,15.23
2019-04-20T17:37:39.098Z,15.11
2019-04-20T17:40:31.169Z,15.00
2019-04-20T17:42:53.009Z,14.89
2019-04-20T17:45:28.263Z,14.79
2019-04-20T17:48:04.696Z,14.74
2019-04-20T17:50:42.311Z,14.63
2019-04-20T17:53:12.623Z,14.54
2019-04-20T17:55:49.964Z,14.46
2019-04-20T17:58:27.943Z,14.35
2019-04-20T18:01:24.076Z,14.19
2019-04-20T18:04:18.650Z,14.06
2019-04-20T18:06:36.074Z,13.89
2019-04-20T18:09:03.058Z,13.79
2019-04-20T18:11:27.576Z,13.71
2019-04-20T18:14:04.233Z,13.62
2019-04-20T18:16:52.403Z,13.50
2019-04-20T18:19:16.054Z,13.39
2019-04-20T18:21:49.759Z,13.31
2019-04-20T18:24:42.389Z,13.25
2019-04-20T18:27:16.212Z,13.23
2019-04-20T18:29:40.834Z,13.18
2019-04-20T18:31:59.669Z,13.14
2019-04-20T18:34:36.331Z,13.11
2019-04-20T18:37:11.961Z,13.07
2019-04-20T18:39:46.253Z,13.03
2019-04-20T18:42:19.172Z,12.99
2019-04-20T18:45:04.209Z,12.95
2019-04-20T18:47:37.285Z,12.90
2019-04-20T18:49:57.136Z,12.83
2019-04-20T18:52:22.050Z,12.77
2019-04-20T18:54:55.377Z,12.72
2019-04-20T18:57:30.744Z,12.62
2019-04-20T18:59:59.146Z,12.52
2019-04-20T19:02:35.368Z,12.40
2019-04-20T19:05:08.610Z,12.31
2019-04-20T19:07:48.003Z,12.24
2019-04-20T19:10:19.544Z,12.16
2019-04-20T19:12:59.910Z,12.10
2019-04-20T19:15:53.428Z,12.07
2019-04-20T19:18:38.361Z,12.01
2019-04-20T19:21:01.280Z,11.97
2019-04-20T19:23:35.395Z,12.07
2019-04-20T19:26:09.557Z,12.16
2019-04-20T19:28:44.726Z,12.25
2019-04-20T19:31:25.235Z,12.28
2019-04-20T19:34:02.091Z,12.25
2019-04-20T19:36:28.114Z,12.17
2019-04-20T19:39:01.367Z,12.07
2019-04-20T19:41:32.013Z,11.95
2019-04-20T19:44:09.219Z,11.85
2019-04-20T19:46:47.768Z,11.74
2019-04-20T19:49:11.288Z,11.74
2019-04-20T19:51:55.139Z,11.91
2019-04-20T19:54:24.210Z,11.93
2019-04-20T19:56:48.711Z,12.11
2019-04-20T19:59:21.833Z,12.03
2019-04-20T20:01:42.108Z,12.08
2019-04-20T20:04:13.743Z,12.06
2019-04-20T20:06:49.687Z,11.99
2019-04-20T20:09:18.293Z,11.96
2019-04-20T20:11:50.030Z,11.96
2019-04-20T20:14:29.262Z,11.96
2019-04-20T20:17:08.696Z,11.96
2019-04-20T20:19:38.268Z,12.05
2019-04-20T20:22:08.985Z,12.05
2019-04-20T20:24:31.372Z,12.01
2019-04-20T20:27:07.444Z,11.92
2019-04-20T20:29:41.636Z,11.99
2019-04-20T20:32:17.633Z,11.91
2019-04-20T20:34:43.413Z,11.77
2019-04-20T20:37:19.507Z,11.73
2019-04-20T20:39:53.861Z,11.68
2019-04-20T20:42:29.595Z,11.56
2019-04-20T20:44:55.030Z,11.52
2019-04-20T20:47:41.975Z,11.44
2019-04-20T20:50:28.485Z,11.42
2019-04-20T20:52:37.883Z,11.44
2019-04-20T20:55:07.984Z,11.47
2019-04-20T20:57:43.732Z,11.48
2019-04-20T21:00:19.658Z,11.52
2019-04-20T21:02:49.313Z,11.49
2019-04-20T21:05:13.694Z,11.56
2019-04-20T21:07:44.815Z,11.59
2019-04-20T21:10:28.114Z,11.59
2019-04-20T21:12:55.802Z,11.58
2019-04-20T21:15:24.218Z,11.72
2019-04-20T21:18:17.383Z,11.83
2019-04-20T21:20:51.941Z,11.86
2019-04-20T21:23:15.380Z,11.85
2019-04-20T21:25:40.786Z,11.82
2019-04-20T21:28:06.859Z,11.84
2019-04-20T21:30:41.565Z,11.86
2019-04-20T21:33:11.243Z,11.87
2019-04-20T21:35:48.310Z,11.81
2019-04-20T21:38:18.523Z,11.86
2019-04-20T21:40:51.292Z,11.83
2019-04-20T21:43:27.864Z,11.87
2019-04-20T21:45:59.441Z,11.81
2019-04-20T21:48:49.290Z,11.75
2019-04-20T21:51:14.090Z,11.83
2019-04-20T21:53:33.675Z,11.84
2019-04-20T21:56:03.868Z,11.77
2019-04-20T21:58:41.627Z,11.66
2019-04-20T22:01:18.588Z,11.79
2019-04-20T22:03:42.486Z,11.74
2019-04-20T22:06:14.058Z,11.73
2019-04-20T22:08:51.824Z,11.73
2019-04-20T22:11:17.835Z,11.70
2019-04-20T22:13:51.237Z,11.70
2019-04-20T22:16:24.106Z,11.78
2019-04-20T22:19:11.794Z,11.63
2019-04-20T22:21:45.184Z,11.50
2019-04-20T22:24:10.541Z,11.56
2019-04-20T22:26:45.629Z,11.54
2019-04-20T22:29:05.979Z,11.39
2019-04-20T22:31:38.255Z,11.32
2019-04-20T22:34:16.884Z,11.16
2019-04-20T22:36:46.697Z,11.05
2019-04-20T22:39:16.155Z,10.95
2019-04-20T22:41:53.587Z,10.91
2019-04-20T22:44:26.292Z,10.89
2019-04-20T22:46:56.337Z,10.88
2019-04-20T22:49:41.426Z,10.89
2019-04-20T22:52:13.199Z,10.81
2019-04-20T22:54:46.697Z,10.75
2019-04-20T22:57:13.059Z,10.71
2019-04-20T22:59:48.513Z,10.68
2019-04-20T23:02:09.452Z,10.65
2019-04-20T23:04:42.585Z,10.60
2019-04-20T23:07:14.768Z,10.58
2019-04-20T23:09:51.243Z,10.57
2019-04-20T23:12:21.166Z,10.49
2019-04-20T23:14:50.256Z,10.43
2019-04-20T23:17:28.342Z,10.39
2019-04-20T23:19:57.438Z,10.36
2019-04-20T23:22:33.670Z,10.30
2019-04-20T23:24:57.687Z,10.25
2019-04-20T23:27:31.597Z,10.21
2019-04-20T23:30:03.638Z,10.19
2019-04-20T23:32:33.820Z,10.19
2019-04-20T23:35:11.687Z,10.16
2019-04-20T23:37:40.578Z,10.14
2019-04-20T23:40:14.613Z,10.15
2019-04-20T23:42:46.378Z,10.13
2019-04-20T23:45:27.001Z,10.13
2019-04-20T23:48:03.395Z,10.21
2019-04-20T23:50:46.602Z,10.16
2019-04-20T23:53:21.254Z,10.16
2019-04-20T23:55:35.946Z,10.13
2019-04-20T23:58:08.877Z,10.10
